Time;durP1;ratioP1;P1;durP2;ratioP2;P2;SDS_P1;SDS_P2;PMS_P1;PMS_P2;Temp;Humidity;BMP_temperature;BMP_pressure;BME280_temperature;BME280_humidity;BME280_pressure;Samples;Min_cycle;Max_cycle;Signal;HPM_P1;HPM_P2
2021/12/16 00:03:47;;;;;;;4.88;3.60;;;;;;;21.00;31.73;100764.84;5112713;28;20071;-59
2021/12/16 00:08:58;;;;;;;5.05;3.85;;;;;;;20.96;31.90;100758.34;5112629;28;20040;-48
2021/12/16 00:33:14;;;;;;;5.10;3.65;;;;;;;20.88;31.74;100768.41;5112453;28;20040;-46
2021/12/16 00:35:42;;;;;;;5.18;3.92;;;;;;;20.88;31.74;100764.81;5112314;28;20044;-47
2021/12/16 00:38:07;;;;;;;5.68;3.88;;;;;;;20.87;31.98;100760.44;5112103;28;20075;-47
2021/12/16 00:40:33;;;;;;;5.28;3.85;;;;;;;20.88;31.79;100762.03;5112124;28;20149;-47
2021/12/16 00:43:11;;;;;;;5.18;3.92;;;;;;;20.86;31.82;100762.41;5112153;28;20046;-46
2021/12/16 00:48:25;;;;;;;6.28;4.63;;;;;;;20.85;31.58;100776.63;5112136;28;20042;-47
2021/12/16 00:56:09;;;;;;;5.68;3.92;;;;;;;23.48;28.29;100770.09;5111830;28;20155;-47
2021/12/16 00:58:46;;;;;;;5.90;4.45;;;;;;;23.64;28.07;100774.91;5110403;28;20578;-47
2021/12/16 01:37:17;;;;;;;6.28;4.72;;;;;;;20.99;31.76;100760.44;5111234;28;20071;-47
2021/12/16 01:55:09;;;;;;;7.10;5.20;;;;;;;20.88;32.09;100775.94;5048082;28;20148;-47
2021/12/16 01:57:42;;;;;;;6.97;5.28;;;;;;;20.87;31.99;100783.47;5030470;28;20095;-47
2021/12/16 02:00:26;;;;;;;6.85;5.28;;;;;;;20.84;31.95;100777.78;5030240;28;20111;-47
2021/12/16 02:02:59;;;;;;;6.68;4.93;;;;;;;20.83;32.11;100781.72;5028216;28;20128;-47
2021/12/16 02:10:33;;;;;;;6.63;5.03;;;;;;;20.82;32.06;100778.13;5027584;28;20051;-47
2021/12/16 02:32:14;;;;;;;6.60;5.30;;;;;;;20.79;32.29;100762.13;5110677;28;20047;-58
2021/12/16 02:37:16;;;;;;;7.72;5.30;;;;;;;20.76;32.09;100759.22;5110318;28;19924;-49
2021/12/16 02:39:42;;;;;;;7.10;5.13;;;;;;;20.75;32.34;100763.97;5110403;28;20058;-48
2021/12/16 02:42:14;;;;;;;7.18;4.97;;;;;;;20.76;32.32;100765.59;5109965;28;20067;-47
2021/12/16 02:50:08;;;;;;;6.35;5.05;;;;;;;20.77;32.32;100749.72;5110267;28;20324;-47
2021/12/16 02:52:34;;;;;;;6.03;4.50;;;;;;;20.77;32.14;100753.31;5109809;28;20352;-47
2021/12/16 02:55:00;;;;;;;6.25;4.93;;;;;;;20.79;32.13;100751.00;5110078;28;20069;-59
2021/12/16 02:57:26;;;;;;;6.88;4.78;;;;;;;20.76;32.06;100746.13;5110155;28;20082;-58
2021/12/16 02:59:53;;;;;;;5.38;4.22;;;;;;;21.23;31.58;100751.34;5110059;28;20071;-59
2021/12/16 03:02:21;;;;;;;6.07;4.32;;;;;;;22.47;29.71;100743.41;5109903;28;20032;-59
2021/12/16 03:04:50;;;;;;;5.50;4.22;;;;;;;23.66;28.25;100736.25;5109873;28;20055;-59
2021/12/16 03:07:18;;;;;;;5.95;4.47;;;;;;;23.75;27.95;100736.88;5109733;28;20130;-59
2021/12/16 03:15:26;;;;;;;4.53;3.50;;;;;;;22.36;29.93;100753.44;5109945;28;20062;-46
2021/12/16 03:18:22;;;;;;;5.40;4.07;;;;;;;22.01;30.31;100742.00;5109738;28;20105;-45
2021/12/16 03:20:53;;;;;;;5.90;4.20;;;;;;;21.78;30.74;100747.22;5105424;28;20039;-45
2021/12/16 03:34:07;;;;;;;5.53;3.88;;;;;;;22.91;28.83;100754.63;5109658;28;20082;-46
2021/12/16 03:36:48;;;;;;;5.75;4.35;;;;;;;22.47;29.48;100762.94;5109431;28;20122;-57
2021/12/16 03:39:15;;;;;;;5.45;3.95;;;;;;;22.15;30.04;100756.41;5109623;28;20050;-57
2021/12/16 03:41:41;;;;;;;4.95;3.88;;;;;;;22.20;30.28;100763.69;5109351;28;20044;-57
2021/12/16 03:44:11;;;;;;;5.78;3.88;;;;;;;22.60;29.27;100762.88;5109341;28;20038;-57
2021/12/16 03:46:41;;;;;;;4.95;3.80;;;;;;;22.58;29.63;100760.47;5109404;28;20491;-57
2021/12/16 03:49:17;;;;;;;5.50;3.97;;;;;;;22.37;29.82;100763.44;5109388;28;20044;-57
2021/12/16 03:51:52;;;;;;;4.93;3.85;;;;;;;22.29;29.96;100778.31;5109210;28;20055;-57
2021/12/16 03:54:40;;;;;;;5.18;3.90;;;;;;;23.20;28.88;100772.97;5109087;28;20060;-57
2021/12/16 03:57:10;;;;;;;5.47;3.92;;;;;;;23.21;28.55;100765.38;5110771;28;20376;-57
2021/12/16 03:59:38;;;;;;;5.25;4.05;;;;;;;22.91;28.85;100768.59;5112730;28;20070;-57
2021/12/16 04:02:10;;;;;;;5.38;3.90;;;;;;;22.58;29.42;100776.38;5112388;28;20275;-57
2021/12/16 04:04:36;;;;;;;4.75;3.85;;;;;;;22.28;29.99;100778.66;5112745;28;20463;-57
2021/12/16 04:07:03;;;;;;;5.20;3.85;;;;;;;22.02;30.34;100776.25;5112705;28;20415;-57
2021/12/16 04:09:31;;;;;;;4.90;3.65;;;;;;;21.84;30.36;100775.66;5112700;28;20040;-57
2021/12/16 04:12:07;;;;;;;5.53;4.13;;;;;;;21.68;30.77;100775.56;5112373;28;20048;-57
2021/12/16 04:14:33;;;;;;;5.68;4.10;;;;;;;21.56;31.08;100776.34;5112551;28;20074;-57
2021/12/16 04:17:04;;;;;;;5.22;3.72;;;;;;;21.46;31.08;100770.44;5112532;28;20044;-57
2021/12/16 04:19:32;;;;;;;5.20;4.03;;;;;;;21.35;31.02;100773.66;5109839;28;20035;-57
2021/12/16 04:22:30;;;;;;;5.40;4.05;;;;;;;21.30;31.16;100770.31;5108784;28;20069;-56
2021/12/16 04:24:58;;;;;;;5.50;4.15;;;;;;;21.24;31.12;100766.91;5111952;28;20039;-57
2021/12/16 04:27:24;;;;;;;5.75;4.28;;;;;;;21.19;31.21;100772.66;5112112;28;20480;-57
2021/12/16 04:29:50;;;;;;;5.20;4.00;;;;;;;21.17;31.57;100766.66;5094020;28;20044;-45
2021/12/16 04:32:16;;;;;;;5.90;4.05;;;;;;;21.13;31.43;100757.34;5112120;28;20059;-46
2021/12/16 04:34:42;;;;;;;6.40;4.75;;;;;;;21.11;31.44;100768.03;5112290;28;20054;-45
2021/12/16 04:37:09;;;;;;;5.50;3.97;;;;;;;21.08;31.54;100757.59;5112171;28;20074;-45
2021/12/16 04:39:37;;;;;;;5.82;4.38;;;;;;;21.07;31.60;100764.28;5112154;28;20039;-46
2021/12/16 04:42:04;;;;;;;5.70;4.20;;;;;;;21.06;31.72;100757.91;5111957;28;20075;-46
2021/12/16 04:44:30;;;;;;;6.00;3.97;;;;;;;21.04;31.54;100757.44;5112177;28;20097;-46
2021/12/16 04:46:57;;;;;;;5.32;3.83;;;;;;;21.03;31.42;100757.81;5111863;28;20070;-45
2021/12/16 04:49:23;;;;;;;5.90;4.10;;;;;;;20.99;31.71;100749.31;5112116;28;20051;-45
2021/12/16 04:51:53;;;;;;;5.82;4.20;;;;;;;21.01;31.61;100749.81;5112150;28;20035;-45
2021/12/16 04:54:23;;;;;;;5.75;4.15;;;;;;;20.96;31.72;100752.00;5112229;28;20507;-46
2021/12/16 04:56:48;;;;;;;5.32;3.90;;;;;;;20.96;31.83;100750.00;5111876;28;20047;-57
2021/12/16 04:59:16;;;;;;;5.00;3.70;;;;;;;20.96;31.81;100752.78;5112050;28;20035;-57
2021/12/16 05:01:47;;;;;;;5.40;3.95;;;;;;;20.95;31.73;100753.97;5093494;28;20048;-57
2021/12/16 05:04:13;;;;;;;6.90;4.38;;;;;;;20.92;31.88;100751.84;5111577;28;20035;-57
2021/12/16 05:06:40;;;;;;;5.00;3.83;;;;;;;20.94;31.82;100752.34;5111645;28;20043;-57
2021/12/16 05:09:08;;;;;;;5.32;3.80;;;;;;;20.92;31.73;100746.28;5110871;28;20458;-46
2021/12/16 05:11:35;;;;;;;5.85;4.18;;;;;;;20.92;31.92;100751.84;5111467;28;20545;-45
2021/12/16 05:14:04;;;;;;;5.50;4.32;;;;;;;20.92;31.86;100742.69;5111684;28;20511;-45
2021/12/16 05:16:29;;;;;;;5.60;4.15;;;;;;;20.91;31.87;100749.41;5111418;28;20415;-46
2021/12/16 05:18:56;;;;;;;5.70;4.00;;;;;;;20.89;31.87;100747.78;5111535;28;20500;-46
2021/12/16 05:24:27;;;;;;;5.68;4.05;;;;;;;20.93;31.98;100759.03;5111503;28;20058;-46
2021/12/16 05:27:00;;;;;;;5.25;3.80;;;;;;;21.70;30.63;100762.09;5111715;28;20039;-46
2021/12/16 05:29:25;;;;;;;;;;;;;;;23.22;28.72;100762.25;5111862;28;20085;-46
2021/12/16 05:31:52;;;;;;;5.55;4.15;;;;;;;23.29;28.26;100756.06;5111535;28;20181;-46
2021/12/16 05:34:18;;;;;;;5.32;4.13;;;;;;;22.93;29.06;100759.84;5129166;28;20070;-45
2021/12/16 05:36:44;;;;;;;5.78;4.07;;;;;;;22.55;29.53;100765.91;5132124;27;20043;-47
2021/12/16 05:39:11;;;;;;;5.35;4.22;;;;;;;22.20;29.82;100764.50;5131734;27;20128;-46
2021/12/16 05:41:37;;;;;;;5.32;3.78;;;;;;;21.92;30.10;100774.72;5131618;27;20541;-45
2021/12/16 05:44:03;;;;;;;5.95;4.32;;;;;;;21.71;30.69;100772.06;5131369;27;20047;-45
2021/12/16 05:46:29;;;;;;;5.20;3.90;;;;;;;21.57;30.95;100772.41;5131509;27;20042;-46
2021/12/16 05:48:56;;;;;;;4.82;3.78;;;;;;;21.45;30.89;100774.38;5131606;27;20120;-46
2021/12/16 05:51:30;;;;;;;5.82;4.00;;;;;;;21.34;31.13;100779.56;5131767;27;20043;-45
2021/12/16 05:53:56;;;;;;;5.80;4.18;;;;;;;21.27;31.39;100776.50;5128362;28;20792;-57
2021/12/16 05:56:21;;;;;;;5.75;4.13;;;;;;;21.21;31.50;100773.13;5131747;27;20043;-57
2021/12/16 05:58:47;;;;;;;5.38;3.90;;;;;;;21.16;31.34;100774.19;5131590;27;20043;-57
2021/12/16 06:01:20;;;;;;;5.43;3.92;;;;;;;21.11;31.71;100770.81;5131250;27;20039;-45
2021/12/16 06:03:46;;;;;;;;;;;;;;;21.11;31.50;100773.59;5131740;27;20071;-45
2021/12/16 06:06:12;;;;;;;5.68;3.92;;;;;;;21.07;31.55;100767.88;5131307;27;20403;-46
2021/12/16 06:08:38;;;;;;;5.35;4.10;;;;;;;21.07;31.55;100775.41;5131221;27;20039;-45
2021/12/16 06:13:38;;;;;;;5.35;4.00;;;;;;;21.93;30.25;100773.56;5131146;27;20043;-46
2021/12/16 06:29:21;;;;;;;5.32;3.85;;;;;;;22.58;29.48;100779.19;5130922;27;20051;-46
2021/12/16 06:31:48;;;;;;;4.82;3.45;;;;;;;22.31;29.88;100778.78;5130010;27;20055;-45
2021/12/16 06:34:13;;;;;;;5.03;3.80;;;;;;;22.07;30.38;100792.69;5130735;27;20510;-45
2021/12/16 06:36:39;;;;;;;4.65;3.58;;;;;;;21.86;30.34;100790.88;5130620;27;20057;-45
2021/12/16 06:39:05;;;;;;;5.15;3.95;;;;;;;21.73;30.72;100792.03;5130993;27;20046;-45
2021/12/16 06:41:34;;;;;;;4.50;3.53;;;;;;;21.60;31.02;100793.19;5130919;27;20046;-45
2021/12/16 06:44:06;;;;;;;6.05;3.72;;;;;;;21.53;31.03;100798.50;5130516;27;20080;-47
2021/12/16 06:46:35;;;;;;;5.90;3.58;;;;;;;21.46;31.32;100793.50;5130645;27;20116;-47
2021/12/16 06:49:02;;;;;;;4.70;3.60;;;;;;;21.39;31.30;100785.72;5130442;27;20054;-46
2021/12/16 06:51:40;;;;;;;6.68;3.78;;;;;;;21.34;31.48;100790.72;5130212;27;20051;-47
2021/12/16 06:54:10;;;;;;;7.03;4.20;;;;;;;21.30;31.31;100801.72;5130276;27;20039;-48
2021/12/16 06:56:49;;;;;;;4.57;3.33;;;;;;;21.26;31.62;100795.19;5130604;27;20085;-47
2021/12/16 06:59:25;;;;;;;5.80;3.90;;;;;;;21.23;31.39;100797.84;5130236;27;20046;-56
2021/12/16 07:02:07;;;;;;;5.65;3.80;;;;;;;21.21;31.55;100806.53;5129747;27;20043;-47
2021/12/16 07:04:34;;;;;;;8.23;3.92;;;;;;;21.20;31.62;100804.91;5130324;27;20058;-47
2021/12/16 07:06:59;;;;;;;7.10;3.55;;;;;;;21.16;31.45;100809.53;5130333;27;20118;-47
2021/12/16 07:09:26;;;;;;;6.20;3.63;;;;;;;21.17;31.68;100798.06;5130456;28;20188;-49
2021/12/16 07:11:56;;;;;;;5.80;3.90;;;;;;;21.14;31.85;100809.88;5130305;28;20406;-47
2021/12/16 07:14:34;;;;;;;6.93;3.67;;;;;;;21.16;31.61;100809.53;5127666;28;20043;-48
2021/12/16 07:17:00;;;;;;;5.50;3.72;;;;;;;21.14;31.45;100800.69;5129989;27;20571;-47
2021/12/16 07:19:26;;;;;;;4.57;3.50;;;;;;;21.13;31.69;100799.09;5128474;27;20051;-47
2021/12/16 07:21:51;;;;;;;5.78;3.75;;;;;;;21.12;31.57;100798.28;5130236;28;20055;-46
2021/12/16 07:24:18;;;;;;;5.93;4.13;;;;;;;21.13;31.51;100804.66;5130243;27;20131;-47
2021/12/16 07:26:44;;;;;;;5.38;4.05;;;;;;;21.11;31.76;100804.19;5129694;27;20058;-48
2021/12/16 07:29:10;;;;;;;6.43;3.80;;;;;;;21.10;31.51;100810.91;5121521;27;20054;-46
2021/12/16 07:31:38;;;;;;;7.75;4.00;;;;;;;21.09;31.70;100810.09;5125772;27;20035;-47
2021/12/16 07:34:05;;;;;;;8.10;4.07;;;;;;;21.10;31.81;100816.47;5127335;27;20051;-47
2021/12/16 07:36:33;;;;;;;6.25;3.97;;;;;;;21.11;31.68;100812.53;5129226;28;20055;-47
2021/12/16 07:39:00;;;;;;;8.48;4.20;;;;;;;21.12;31.44;100814.97;5130932;27;20548;-51
2021/12/16 07:41:32;;;;;;;7.90;4.53;;;;;;;21.13;31.48;100819.38;5129762;27;20074;-50
2021/12/16 07:44:11;;;;;;;8.82;4.57;;;;;;;21.13;31.61;100822.16;5133190;27;20050;-52
2021/12/16 07:46:48;;;;;;;12.18;4.93;;;;;;;21.14;31.33;100817.41;5133561;27;20126;-46
2021/12/16 07:49:23;;;;;;;12.38;5.32;;;;;;;21.12;31.38;100822.50;5132622;27;20529;-46
2021/12/16 07:51:49;;;;;;;6.45;4.93;;;;;;;21.12;31.36;100823.31;5133201;27;20525;-46
2021/12/16 07:54:17;;;;;;;9.10;5.22;;;;;;;21.11;31.24;100823.66;5133293;27;20055;-46
2021/12/16 07:56:43;;;;;;;10.40;5.20;;;;;;;21.12;31.28;100819.72;5133400;27;20039;-47
2021/12/16 07:59:09;;;;;;;10.25;4.78;;;;;;;21.40;31.21;100822.72;5133360;27;20503;-46
2021/12/16 08:01:37;;;;;;;5.88;4.13;;;;;;;22.38;29.61;100826.38;5128029;27;20510;-46
2021/12/16 08:04:03;;;;;;;9.45;4.32;;;;;;;23.47;28.21;100829.09;5117488;28;20423;-52
2021/12/16 08:06:30;;;;;;;7.57;4.45;;;;;;;24.39;27.02;100825.03;5123242;28;20505;-50
2021/12/16 08:09:00;;;;;;;6.22;4.72;;;;;;;24.14;27.07;100827.22;5115640;27;20503;-50
2021/12/16 08:11:28;;;;;;;6.95;4.60;;;;;;;23.57;27.89;100836.94;5117382;28;20058;-53
2021/12/16 08:13:54;;;;;;;6.05;4.60;;;;;;;23.05;28.47;100829.56;5125385;27;20035;-54
2021/12/16 08:16:22;;;;;;;6.47;4.47;;;;;;;22.66;29.04;100836.78;5132563;27;20070;-53
2021/12/16 08:18:52;;;;;;;6.22;4.50;;;;;;;22.35;29.46;100840.19;5124896;28;20055;-55
2021/12/16 08:21:17;;;;;;;9.52;4.95;;;;;;;22.07;29.95;100834.50;5131581;27;20072;-46
2021/12/16 08:23:44;;;;;;;5.93;4.22;;;;;;;22.39;29.51;100835.56;5125113;27;20047;-52
2021/12/16 08:26:10;;;;;;;7.80;4.38;;;;;;;23.24;28.66;100837.28;5129295;27;20027;-48
2021/12/16 08:28:35;;;;;;;7.18;5.20;;;;;;;23.64;27.91;100834.38;5131328;27;20426;-51
2021/12/16 08:31:01;;;;;;;8.55;4.88;;;;;;;23.21;28.40;100837.97;5131361;27;20039;-46
2021/12/16 08:33:27;;;;;;;6.63;4.88;;;;;;;22.83;28.78;100844.03;5128197;28;20368;-52
2021/12/16 08:35:54;;;;;;;5.30;4.15;;;;;;;22.93;29.05;100854.72;5118969;27;20537;-49
2021/12/16 08:38:23;;;;;;;6.13;4.20;;;;;;;23.78;27.84;100853.47;5119337;27;20053;-51
2021/12/16 08:40:54;;;;;;;6.28;4.50;;;;;;;23.57;28.09;100848.94;5127889;27;20131;-52
2021/12/16 08:43:21;;;;;;;5.72;4.28;;;;;;;23.20;28.46;100853.09;5129041;27;20044;-53
2021/12/16 08:45:49;;;;;;;7.28;4.43;;;;;;;22.83;28.81;100850.44;5131198;27;20046;-52
2021/12/16 08:48:15;;;;;;;7.03;5.05;;;;;;;22.52;29.19;100865.84;5128500;28;20072;-53
2021/12/16 08:50:46;;;;;;;7.20;4.80;;;;;;;22.25;29.58;100858.22;5130969;27;20040;-52
2021/12/16 08:53:12;;;;;;;6.65;5.05;;;;;;;22.04;30.03;100855.53;5131514;27;20036;-52
2021/12/16 08:55:40;;;;;;;7.47;5.00;;;;;;;21.90;30.50;100857.84;5128080;27;20039;-49
2021/12/16 08:58:06;;;;;;;6.30;4.47;;;;;;;21.79;30.60;100853.88;5129851;27;20061;-54
2021/12/16 09:00:37;;;;;;;10.40;4.82;;;;;;;21.70;30.89;100865.13;5120403;28;20134;-49
2021/12/16 09:03:02;;;;;;;6.50;4.35;;;;;;;21.64;31.07;100858.16;5123197;28;20039;-48
2021/12/16 09:05:28;;;;;;;8.65;4.88;;;;;;;21.59;30.87;100855.59;5117129;27;20035;-54
2021/12/16 09:07:54;;;;;;;5.75;4.72;;;;;;;21.54;31.14;100856.63;5125246;27;20054;-53
2021/12/16 09:10:27;;;;;;;6.20;4.40;;;;;;;21.48;31.03;100866.34;5116622;28;20381;-57
2021/12/16 09:13:03;;;;;;;7.78;4.20;;;;;;;21.46;31.27;100865.09;5124804;28;20074;-52
2021/12/16 09:15:50;;;;;;;12.18;7.22;;;;;;;21.45;31.26;100866.25;5129722;27;20043;-58
2021/12/16 09:18:18;;;;;;;10.13;7.00;;;;;;;21.42;31.50;100865.75;5127644;27;20130;-55
2021/12/16 09:20:44;;;;;;;9.32;6.40;;;;;;;21.40;31.71;100870.84;5130881;27;20498;-49
2021/12/16 09:23:12;;;;;;;10.77;6.70;;;;;;;21.37;31.54;100870.75;5128034;27;20042;-53
2021/12/16 09:25:40;;;;;;;9.00;5.82;;;;;;;21.31;31.99;100872.94;5122889;27;20072;-58
2021/12/16 09:28:05;;;;;;;17.20;8.48;;;;;;;21.35;31.49;100876.63;5123349;27;20082;-58
2021/12/16 09:30:34;;;;;;;23.08;10.45;;;;;;;21.31;31.75;100869.34;5126333;28;20039;-57
2021/12/16 09:33:01;;;;;;;26.58;12.90;;;;;;;21.34;31.62;100875.00;5129630;27;20070;-57
2021/12/16 09:35:30;;;;;;;39.90;15.95;;;;;;;21.29;31.66;100883.59;5118188;27;20043;-58
2021/12/16 09:37:56;;;;;;;41.35;16.70;;;;;;;21.27;31.88;100879.47;5128518;27;20035;-58
2021/12/16 09:40:25;;;;;;;41.83;20.25;;;;;;;21.30;31.80;100889.97;5124801;27;20736;-48
2021/12/16 09:42:52;;;;;;;41.40;19.25;;;;;;;21.28;31.91;100884.72;5127018;27;20121;-48
2021/12/16 09:45:18;;;;;;;45.38;24.30;;;;;;;21.22;31.96;100885.25;5128405;27;20043;-48
2021/12/16 09:47:45;;;;;;;56.75;26.75;;;;;;;21.23;31.98;100895.25;5127555;27;20039;-49
2021/12/16 09:50:18;;;;;;;59.10;27.25;;;;;;;21.23;32.23;100889.69;5128181;27;20038;-48
2021/12/16 09:52:45;;;;;;;;;;;;;;;21.23;32.23;100900.81;5129860;27;20552;-47
2021/12/16 09:55:10;;;;;;;74.57;34.38;;;;;;;21.22;32.18;100902.78;5129180;27;20002;-47
2021/12/16 09:57:37;;;;;;;108.65;57.83;;;;;;;21.21;31.89;100898.34;5114867;27;20131;-50
2021/12/16 10:00:06;;;;;;;119.45;64.72;;;;;;;21.20;32.04;100899.50;5128421;28;20050;-55
2021/12/16 10:02:32;;;;;;;99.82;52.22;;;;;;;21.21;32.19;100900.31;5124372;27;20039;-48
2021/12/16 10:04:58;;;;;;;109.47;51.92;;;;;;;21.21;32.34;100891.97;5127772;28;20043;-51
2021/12/16 10:07:32;;;;;;;107.03;53.53;;;;;;;21.22;31.88;100882.47;5129888;27;20043;-50
2021/12/16 10:09:59;;;;;;;123.30;59.45;;;;;;;21.20;31.87;100879.22;5113017;28;20035;-48
2021/12/16 10:12:29;;;;;;;120.85;59.17;;;;;;;21.19;31.90;100878.41;5118862;27;20043;-52
2021/12/16 10:15:03;;;;;;;119.90;55.80;;;;;;;21.17;31.76;100869.59;5118266;28;20054;-48
2021/12/16 10:17:41;;;;;;;122.60;62.60;;;;;;;21.33;31.90;100867.00;5126596;27;20046;-52
2021/12/16 10:20:16;;;;;;;89.05;48.67;;;;;;;22.39;30.21;100867.03;5128026;27;20043;-49
2021/12/16 10:22:43;;;;;;;65.70;35.60;;;;;;;23.74;28.43;100859.00;5128473;27;20051;-49
2021/12/16 10:25:18;;;;;;;55.75;29.08;;;;;;;23.81;27.95;100864.75;5121710;27;20038;-48
2021/12/16 10:27:58;;;;;;;57.55;28.90;;;;;;;23.29;28.57;100856.56;5129011;27;20046;-51
2021/12/16 10:30:26;;;;;;;49.88;27.10;;;;;;;22.83;29.08;100861.59;5125269;27;20054;-49
2021/12/16 10:32:53;;;;;;;46.95;25.33;;;;;;;22.35;29.79;100846.59;5125858;28;20426;-50
2021/12/16 10:35:29;;;;;;;44.38;21.98;;;;;;;22.15;30.36;100856.72;5111369;28;20053;-47
2021/12/16 10:37:59;;;;;;;51.13;22.25;;;;;;;21.93;30.39;100851.56;5124944;28;20529;-48
2021/12/16 10:40:36;;;;;;;54.10;21.40;;;;;;;21.77;30.44;100848.66;5122718;27;20049;-48
2021/12/16 10:43:08;;;;;;;47.58;18.98;;;;;;;22.21;30.34;100852.50;5122135;28;20130;-49
2021/12/16 10:45:54;;;;;;;57.25;18.55;;;;;;;23.40;28.75;100835.31;5128824;28;20495;-48
2021/12/16 10:48:29;;;;;;;49.45;15.63;;;;;;;24.61;27.00;100843.09;5128617;27;20039;-47
2021/12/16 10:50:59;;;;;;;47.25;14.90;;;;;;;24.16;27.18;100845.25;5126301;27;20123;-47
2021/12/16 10:53:52;;;;;;;42.05;13.18;;;;;;;23.52;27.85;100843.63;5123743;27;20134;-49
2021/12/16 10:56:21;;;;;;;47.55;13.65;;;;;;;23.02;28.52;100842.25;5115176;28;20219;-47
2021/12/16 10:58:51;;;;;;;36.22;12.27;;;;;;;22.63;28.98;100851.41;5127509;28;20065;-47
2021/12/16 11:01:38;;;;;;;27.65;11.63;;;;;;;22.29;29.65;100847.16;5127304;27;20043;-46
2021/12/16 11:04:08;;;;;;;35.80;11.43;;;;;;;22.07;29.71;100837.28;5124421;28;20459;-47
2021/12/16 11:06:41;;;;;;;30.73;10.68;;;;;;;21.89;30.09;100834.75;5124566;27;20039;-46
2021/12/16 11:09:21;;;;;;;;;;;;;;;21.78;30.18;100839.13;5113518;27;20123;-46
2021/12/16 11:11:47;;;;;;;19.38;9.18;;;;;;;22.27;29.76;100833.59;5126062;28;20479;-47
2021/12/16 11:14:24;;;;;;;15.88;7.97;;;;;;;22.63;28.76;100831.88;5123550;27;20250;-47
2021/12/16 11:17:04;;;;;;;21.35;8.38;;;;;;;22.44;28.99;100833.34;5127139;27;20047;-45
2021/12/16 11:20:00;;;;;;;20.52;6.93;;;;;;;22.22;29.44;100836.63;5121338;28;20042;-46
2021/12/16 11:22:33;;;;;;;17.13;6.65;;;;;;;23.03;28.93;100835.50;5109372;28;20104;-45
2021/12/16 11:25:19;;;;;;;15.68;6.68;;;;;;;23.54;27.92;100830.09;5125376;27;20119;-45
2021/12/16 11:27:49;;;;;;;13.65;6.93;;;;;;;23.17;28.34;100828.69;5127901;27;20587;-46
2021/12/16 11:30:52;;;;;;;14.98;7.10;;;;;;;22.73;29.02;100828.63;5121362;27;20515;-45
2021/12/16 11:33:34;;;;;;;15.15;6.25;;;;;;;22.41;29.64;100827.66;5081652;27;20043;-45
2021/12/16 11:36:21;;;;;;;13.60;6.10;;;;;;;22.14;29.72;100827.22;5112683;28;20035;-45
2021/12/16 11:39:09;;;;;;;15.70;5.78;;;;;;;21.89;30.01;100826.38;5127438;27;20043;-53
2021/12/16 11:41:39;;;;;;;16.52;5.70;;;;;;;21.80;30.38;100834.06;5122117;27;20044;-54
2021/12/16 11:44:10;;;;;;;8.18;5.40;;;;;;;21.72;30.50;100840.53;5126002;27;20503;-55
2021/12/16 11:46:45;;;;;;;9.18;5.35;;;;;;;21.62;30.62;100830.66;5113706;28;20126;-47
2021/12/16 11:49:14;;;;;;;11.45;5.65;;;;;;;21.58;31.09;100828.94;5123544;28;20044;-55
2021/12/16 11:51:46;;;;;;;12.30;4.97;;;;;;;21.55;31.13;100835.16;5122344;27;20054;-54
2021/12/16 11:54:24;;;;;;;8.88;4.78;;;;;;;21.51;31.31;100828.69;5124998;27;20058;-54
2021/12/16 11:57:04;;;;;;;7.18;4.25;;;;;;;21.47;31.31;100833.28;5118201;28;20051;-53
2021/12/16 11:59:37;;;;;;;11.27;5.30;;;;;;;21.46;31.50;100828.91;5126946;27;20410;-53
2021/12/16 12:02:04;;;;;;;11.73;4.50;;;;;;;21.43;31.45;100824.81;5127341;27;20046;-50
2021/12/16 12:04:35;;;;;;;10.02;4.95;;;;;;;21.40;31.50;100826.31;5125317;27;20032;-52
2021/12/16 12:07:15;;;;;;;14.80;5.57;;;;;;;21.37;31.29;100813.09;5122758;28;20031;-45
2021/12/16 12:09:52;;;;;;;17.83;4.65;;;;;;;21.34;31.42;100811.00;5123066;28;20047;-45
2021/12/16 12:12:47;;;;;;;21.92;5.13;;;;;;;21.33;31.60;100806.59;5123014;27;20059;-57
2021/12/16 12:15:16;;;;;;;13.40;4.55;;;;;;;21.34;31.43;100807.41;5121930;28;20529;-57
2021/12/16 12:17:50;;;;;;;18.25;4.00;;;;;;;21.33;31.39;100811.34;5118203;27;20171;-56
2021/12/16 12:20:17;;;;;;;19.33;4.40;;;;;;;21.31;31.76;100806.13;5129053;27;20043;-47
2021/12/16 12:22:42;;;;;;;9.10;4.18;;;;;;;21.32;31.77;100799.41;5123114;27;20039;-54
2021/12/16 12:25:08;;;;;;;13.43;4.10;;;;;;;21.30;31.82;100796.16;5118333;28;20043;-47
2021/12/16 12:27:33;;;;;;;8.63;3.88;;;;;;;21.30;31.74;100801.72;5123166;27;20043;-48
2021/12/16 12:30:05;;;;;;;10.77;4.30;;;;;;;21.34;31.67;100797.06;5124461;27;20130;-49
2021/12/16 12:32:35;;;;;;;10.27;4.15;;;;;;;21.41;31.56;100796.50;5126373;28;20043;-49
2021/12/16 12:35:23;;;;;;;21.83;4.00;;;;;;;21.43;31.54;100783.06;5120886;28;20036;-49
2021/12/16 12:37:53;;;;;;;9.80;4.20;;;;;;;21.53;31.24;100793.75;5124976;28;20096;-47
2021/12/16 12:40:40;;;;;;;10.35;3.83;;;;;;;21.59;31.07;100786.00;5124572;28;20062;-48
2021/12/16 12:43:09;;;;;;;8.65;4.63;;;;;;;21.63;31.40;100784.94;5122994;27;20058;-47
2021/12/16 12:45:37;;;;;;;9.70;5.97;;;;;;;21.68;31.21;100781.94;5125106;28;20525;-48
2021/12/16 12:48:06;;;;;;;11.63;4.60;;;;;;;21.70;31.44;100782.38;5122955;27;20173;-49
2021/12/16 12:50:36;;;;;;;6.82;4.63;;;;;;;21.76;30.73;100771.84;5123454;28;20047;-45
2021/12/16 12:53:14;;;;;;;13.85;4.97;;;;;;;21.73;31.22;100777.31;5125227;27;20085;-46
2021/12/16 12:55:40;;;;;;;10.77;4.40;;;;;;;21.66;31.26;100787.03;5129149;27;20144;-45
2021/12/16 12:58:12;;;;;;;9.18;4.60;;;;;;;21.59;31.41;100775.66;5128158;27;20433;-45
2021/12/16 13:00:50;;;;;;;7.18;4.28;;;;;;;21.56;31.06;100783.88;5126453;27;20518;-45
2021/12/16 13:03:21;;;;;;;8.40;4.50;;;;;;;21.52;31.29;100777.41;5124539;28;20422;-45
2021/12/16 13:06:03;;;;;;;7.95;4.07;;;;;;;21.49;31.46;100772.50;5126487;27;20072;-45
2021/12/16 13:08:32;;;;;;;6.78;4.30;;;;;;;21.45;31.23;100777.16;5127048;28;20039;-46
2021/12/16 13:11:02;;;;;;;7.90;4.03;;;;;;;21.42;31.13;100776.69;5127402;27;20388;-45
2021/12/16 13:13:33;;;;;;;7.15;4.53;;;;;;;21.40;31.40;100776.22;5120375;28;20043;-46
2021/12/16 13:16:58;;;;;;;6.05;4.13;;;;;;;21.39;31.26;100774.59;5124787;28;20076;-45
2021/12/16 13:27:24;;;;;;;6.32;3.63;;;;;;;22.36;30.12;100786.91;5039745;28;20063;-54
2021/12/16 13:30:20;;;;;;;7.32;3.67;;;;;;;22.59;30.15;100781.59;5037603;28;20056;-51
2021/12/16 13:32:49;;;;;;;5.93;3.60;;;;;;;23.55;28.92;100775.06;5061704;27;20053;-53
2021/12/16 13:35:35;;;;;;;5.32;3.85;;;;;;;23.27;29.01;100775.13;5121255;27;20051;-46
2021/12/16 13:38:08;;;;;;;4.65;3.35;;;;;;;22.81;29.90;100783.03;5117956;27;20135;-47
2021/12/16 13:40:37;;;;;;;8.18;4.03;;;;;;;22.51;30.19;100785.34;5124247;28;20092;-46
2021/12/16 13:43:13;;;;;;;6.07;3.97;;;;;;;22.26;30.79;100770.66;5116656;28;20043;-48
2021/12/16 13:46:00;;;;;;;6.93;3.97;;;;;;;22.06;31.08;100777.16;5119008;27;20423;-51
2021/12/16 13:49:02;;;;;;;7.78;3.88;;;;;;;21.92;31.56;100766.38;5117367;28;20047;-47
2021/12/16 14:03:08;;;;;;;6.82;3.90;;;;;;;21.39;32.68;100769.03;5112938;28;20070;-46
2021/12/16 14:05:56;;;;;;;7.82;3.95;;;;;;;21.37;32.59;100767.75;5123205;28;20046;-50
2021/12/16 14:08:36;;;;;;;5.07;3.33;;;;;;;21.35;32.65;100770.06;5124670;28;20134;-49
2021/12/16 14:11:34;;;;;;;7.82;3.90;;;;;;;21.35;32.77;100776.44;5124689;27;20043;-46
2021/12/16 14:14:22;;;;;;;7.35;3.50;;;;;;;21.34;32.77;100772.03;5120397;28;20045;-52
2021/12/16 14:25:32;;;;;;;8.18;3.60;;;;;;;21.30;32.89;100764.75;5118736;28;20050;-50
2021/12/16 14:41:39;;;;;;;15.85;3.70;;;;;;;21.27;33.21;100785.66;5120663;27;20525;-46
2021/12/16 14:46:45;;;;;;;7.13;4.57;;;;;;;21.24;33.23;100789.16;5123801;28;20041;-48
2021/12/16 14:49:10;;;;;;;13.07;4.28;;;;;;;21.25;33.32;100787.19;5124763;27;20039;-46
2021/12/16 14:51:36;;;;;;;11.80;4.20;;;;;;;21.24;33.20;100791.94;5120930;27;20612;-50
2021/12/16 14:54:07;;;;;;;9.23;4.07;;;;;;;21.18;33.30;100793.31;5116539;28;20046;-47
2021/12/16 14:56:40;;;;;;;13.10;4.35;;;;;;;21.17;33.67;100786.13;5111874;28;20075;-52
2021/12/16 14:59:13;;;;;;;6.40;3.85;;;;;;;21.21;33.68;100783.44;5119877;28;20054;-46